This is the latest recevied weather packets stored in our database for station/object KTPF. If no packets are shown the sender has not sent any weather packets the latest 1 day(s).
| Time | Temp. | Humidity | Pressure | Rain* | Wind** | Luminosity | Snow |
|---|---|---|---|---|---|---|---|
| 1778094222 | 30.56° C | 58% | 1015.9 hPa | - | - | - | - |
| 1778090745 | 30.56° C | 52% | 1016.3 hPa | - | - | - | - |
| 1778090020 | 30.56° C | 52% | 1016.6 hPa | - | - | - | - |
| 1778089421 | 30.56° C | 52% | 1016.6 hPa | - | - | - | - |
| 1778088824 | 30.56° C | 48% | 1016.6 hPa | - | - | - | - |
| 1778087023 | 30° C | 55% | 1016.9 hPa | - | - | - | - |
| 1778085224 | 30° C | 55% | 1017.3 hPa | - | - | - | - |
| 1778084623 | 30° C | 55% | 1017.3 hPa | - | - | - | - |
| 1778084023 | 28.89° C | 62% | 1016.9 hPa | - | - | - | - |
| 1778082221 | 28.89° C | 62% | 1016.9 hPa | - | - | - | - |
| 1778081622 | 27.78° C | 65% | 1017.3 hPa | - | - | - | - |
| 1778081023 | 27.78° C | 65% | 1017.3 hPa | - | - | - | - |
| 1778078022 | 26.67° C | 69% | 1016.9 hPa | - | - | - | - |
| 1778077418 | 26.67° C | 69% | 1016.9 hPa | - | - | - | - |
| 1778075620 | 25.56° C | 78% | 1016.9 hPa | - | - | - | - |
| 1778075019 | 25.56° C | 78% | 1016.9 hPa | - | - | - | - |
| 1778071421 | 22.78° C | 88% | 1016.3 hPa | - | - | - | - |
| 1778070819 | 22.78° C | 88% | 1016.3 hPa | - | - | - | - |
| 1778069620 | 21.67° C | 88% | 1015.9 hPa | - | - | - | - |
| 1778067820 | 21.67° C | 88% | 1015.9 hPa | - | - | - | - |
| 1778066022 | 20.56° C | 94% | 1015.9 hPa | - | - | - | - |
| 1778064222 | 20.56° C | 88% | 1015.6 hPa | - | - | - | - |
| 1778063620 | 20.56° C | 88% | 1015.6 hPa | - | - | - | - |
| 1778063022 | 21.67° C | 83% | 1015.2 hPa | - | - | - | - |
| 1778061223 | 20.56° C | 88% | 1015.2 hPa | - | - | - | - |
* Rain since midnight (hover to see other rain measurements)
** Current wind speed in m/s (hover to see current wind gust speed)